createdAt,value
2019-03-10T00:04:01.839Z,1006.14
2019-03-10T00:08:57.288Z,1005.97
2019-03-10T00:13:52.322Z,1005.95
2019-03-10T00:18:49.090Z,1006.17
2019-03-10T00:23:44.572Z,1006.03
2019-03-10T00:28:40.295Z,1005.94
2019-03-10T00:33:36.001Z,1005.87
2019-03-10T00:38:31.777Z,1005.76
2019-03-10T00:43:27.088Z,1005.61
2019-03-10T00:48:23.092Z,1005.64
2019-03-10T00:53:18.831Z,1005.65
2019-03-10T00:58:15.583Z,1005.49
2019-03-10T01:03:10.729Z,1005.45
2019-03-10T01:08:07.548Z,1005.38
2019-03-10T01:13:03.111Z,1005.31
2019-03-10T01:17:58.648Z,1005.29
2019-03-10T01:22:55.287Z,1005.14
2019-03-10T01:27:52.010Z,1005.00
2019-03-10T01:32:48.077Z,1004.97
2019-03-10T01:37:44.484Z,1004.80
2019-03-10T01:42:39.844Z,1004.83
2019-03-10T01:47:35.579Z,1004.73
2019-03-10T01:52:31.372Z,1004.71
2019-03-10T01:57:27.334Z,1004.59
2019-03-10T02:02:25.876Z,1004.41
2019-03-10T02:07:20.949Z,1004.35
2019-03-10T02:12:16.777Z,1004.28
2019-03-10T02:17:12.633Z,1003.92
2019-03-10T02:22:08.330Z,1003.90
2019-03-10T02:27:04.681Z,1003.79
2019-03-10T02:32:00.027Z,1003.69
2019-03-10T02:36:55.759Z,1003.54
2019-03-10T02:41:51.631Z,1003.49
2019-03-10T02:46:47.310Z,1003.23
2019-03-10T02:51:43.188Z,1003.22
2019-03-10T02:56:38.705Z,1003.13
2019-03-10T03:01:34.531Z,1003.08
2019-03-10T03:06:30.350Z,1003.10
2019-03-10T03:11:26.550Z,1002.94
2019-03-10T03:16:22.528Z,1002.85
2019-03-10T03:21:18.148Z,1002.70
2019-03-10T03:26:14.023Z,1002.61
2019-03-10T03:31:10.639Z,1002.58
2019-03-10T03:36:07.216Z,1002.49
2019-03-10T03:41:02.611Z,1002.27
2019-03-10T03:45:58.293Z,1002.12
2019-03-10T03:50:55.130Z,1001.97
2019-03-10T03:55:50.997Z,1001.96
2019-03-10T04:00:47.126Z,1001.93
2019-03-10T04:05:42.828Z,1001.80
2019-03-10T04:10:39.121Z,1001.68
2019-03-10T04:15:35.339Z,1001.69
2019-03-10T04:20:31.052Z,1001.53
2019-03-10T04:25:27.220Z,1001.46
2019-03-10T04:30:23.901Z,1001.45
2019-03-10T04:35:20.199Z,1001.32
2019-03-10T04:40:16.745Z,1001.10
2019-03-10T04:45:12.371Z,1000.96
2019-03-10T04:50:08.992Z,1000.90
2019-03-10T04:55:04.757Z,1000.77
2019-03-10T05:00:00.060Z,1000.80
2019-03-10T05:04:56.914Z,1000.73
2019-03-10T05:09:52.641Z,1000.66
2019-03-10T05:14:48.379Z,1000.58
2019-03-10T05:19:44.106Z,1000.50
2019-03-10T05:24:39.988Z,1000.29
2019-03-10T05:29:35.577Z,1000.27
2019-03-10T05:34:32.272Z,1000.11
2019-03-10T05:39:28.568Z,999.96
2019-03-10T05:44:24.101Z,999.79
2019-03-10T05:49:19.309Z,999.78
2019-03-10T05:54:16.287Z,999.56
2019-03-10T05:59:11.707Z,999.40
2019-03-10T06:04:08.221Z,999.32
2019-03-10T06:09:03.862Z,999.03
2019-03-10T06:13:59.575Z,999.01
2019-03-10T06:18:55.075Z,998.82
2019-03-10T06:23:50.839Z,998.77
2019-03-10T06:28:46.556Z,998.52
2019-03-10T06:33:41.973Z,998.44
2019-03-10T06:38:37.469Z,998.44
2019-03-10T06:43:33.236Z,998.24
2019-03-10T06:48:28.833Z,997.98
2019-03-10T06:53:24.598Z,997.88
2019-03-10T06:58:20.260Z,997.88
2019-03-10T07:03:16.284Z,997.78
2019-03-10T07:08:11.963Z,997.58
2019-03-10T07:13:07.572Z,997.42
2019-03-10T07:18:03.317Z,997.42
2019-03-10T07:23:00.068Z,997.35
2019-03-10T07:27:56.686Z,997.24
2019-03-10T07:32:53.111Z,997.15
2019-03-10T07:37:48.654Z,997.16
2019-03-10T07:42:44.291Z,996.99
2019-03-10T07:47:41.005Z,996.65
2019-03-10T07:52:37.823Z,996.53
2019-03-10T07:57:33.509Z,996.41
2019-03-10T08:02:29.328Z,996.38
2019-03-10T08:07:26.093Z,996.28
2019-03-10T08:12:21.805Z,996.27
2019-03-10T08:17:17.155Z,996.11
2019-03-10T08:22:12.771Z,995.98
2019-03-10T08:27:08.647Z,995.81
2019-03-10T08:32:04.285Z,995.76
2019-03-10T08:37:00.757Z,995.66
2019-03-10T08:41:56.593Z,995.56
2019-03-10T08:46:52.329Z,995.52
2019-03-10T08:51:47.938Z,995.40
2019-03-10T08:56:43.945Z,995.23
2019-03-10T09:01:39.642Z,995.18
2019-03-10T09:06:36.479Z,995.07
2019-03-10T09:11:31.996Z,994.81
2019-03-10T09:16:28.650Z,994.77
2019-03-10T09:21:24.349Z,994.83
2019-03-10T09:26:19.996Z,994.69
2019-03-10T09:31:16.935Z,994.58
2019-03-10T09:36:13.495Z,994.52
2019-03-10T09:41:10.025Z,994.32
2019-03-10T09:46:06.740Z,994.34
2019-03-10T09:51:02.237Z,994.04
2019-03-10T09:55:58.596Z,993.94
2019-03-10T10:00:55.572Z,993.94
2019-03-10T10:05:50.974Z,993.65
2019-03-10T10:10:46.570Z,993.49
2019-03-10T10:15:42.454Z,993.13
2019-03-10T10:20:39.042Z,993.39
2019-03-10T10:25:34.421Z,993.42
2019-03-10T10:30:30.513Z,993.19
2019-03-10T10:35:27.244Z,993.24
2019-03-10T10:40:23.496Z,993.02
2019-03-10T10:45:18.947Z,992.99
2019-03-10T10:50:14.836Z,992.82
2019-03-10T10:55:11.324Z,992.65
2019-03-10T11:00:08.261Z,992.66
2019-03-10T11:05:03.769Z,992.55
2019-03-10T11:09:59.752Z,992.40
2019-03-10T11:14:55.387Z,992.28
2019-03-10T11:19:50.945Z,992.24
2019-03-10T11:24:47.695Z,992.11
2019-03-10T11:29:44.240Z,992.06
2019-03-10T11:34:39.730Z,992.05
2019-03-10T11:39:35.437Z,992.00
2019-03-10T11:44:30.624Z,991.84
2019-03-10T11:49:26.183Z,991.63
2019-03-10T11:54:22.355Z,991.57
2019-03-10T11:59:18.291Z,991.36
2019-03-10T12:04:13.993Z,991.28
2019-03-10T12:09:11.018Z,991.18
2019-03-10T12:14:07.304Z,991.06
2019-03-10T12:19:03.061Z,990.88
2019-03-10T12:23:59.081Z,990.70
2019-03-10T12:28:54.410Z,990.67
2019-03-10T12:33:51.242Z,990.49
2019-03-10T12:38:47.825Z,990.75
2019-03-10T12:43:43.873Z,990.54
2019-03-10T12:48:39.756Z,990.36
2019-03-10T12:53:36.712Z,990.36
2019-03-10T12:58:33.711Z,990.24
2019-03-10T13:03:29.618Z,990.16
2019-03-10T13:08:25.703Z,990.15
2019-03-10T13:13:21.384Z,990.19
2019-03-10T13:18:16.811Z,990.10
2019-03-10T13:23:12.642Z,989.91
2019-03-10T13:28:09.540Z,989.82
2019-03-10T13:33:06.091Z,989.54
2019-03-10T13:38:02.044Z,989.51
2019-03-10T13:42:57.748Z,989.44
2019-03-10T13:47:53.329Z,989.42
2019-03-10T13:52:48.709Z,989.47
2019-03-10T13:57:45.549Z,989.45
2019-03-10T14:02:42.483Z,989.39
2019-03-10T14:07:38.263Z,989.49
2019-03-10T14:12:34.931Z,989.65
2019-03-10T14:17:30.767Z,989.64
2019-03-10T14:22:26.613Z,989.99
2019-03-10T14:27:22.221Z,989.98
2019-03-10T14:32:17.830Z,990.31
2019-03-10T14:37:13.472Z,990.52
2019-03-10T14:42:08.899Z,990.50
2019-03-10T14:47:05.395Z,990.49
2019-03-10T14:52:01.902Z,990.67
2019-03-10T14:56:58.294Z,990.78
2019-03-10T15:01:53.511Z,990.79
2019-03-10T15:06:49.396Z,990.84
2019-03-10T15:11:44.737Z,990.44
2019-03-10T15:16:40.862Z,990.61
2019-03-10T15:21:36.639Z,990.38
2019-03-10T15:26:32.449Z,990.65
2019-03-10T15:31:28.252Z,990.82
2019-03-10T15:36:23.679Z,990.57
2019-03-10T15:41:20.810Z,990.82
2019-03-10T15:46:15.999Z,991.02
2019-03-10T15:51:12.843Z,991.09
2019-03-10T15:56:08.430Z,991.58
2019-03-10T16:01:04.280Z,992.06
2019-03-10T16:06:00.196Z,992.95
2019-03-10T16:10:55.981Z,993.85
2019-03-10T16:15:51.389Z,994.46
2019-03-10T16:20:46.842Z,995.41
2019-03-10T16:25:41.987Z,996.08
2019-03-10T16:30:37.157Z,996.67
2019-03-10T16:35:32.543Z,997.01
2019-03-10T16:40:28.850Z,997.60
2019-03-10T16:45:23.853Z,998.08
2019-03-10T16:50:19.328Z,998.53
2019-03-10T16:55:14.710Z,999.00
2019-03-10T17:00:11.054Z,999.32
2019-03-10T17:05:06.521Z,999.78
2019-03-10T17:10:02.253Z,1000.03
2019-03-10T17:14:58.887Z,1000.36
2019-03-10T17:19:54.094Z,1000.56
2019-03-10T17:24:50.014Z,1000.78
2019-03-10T17:29:45.766Z,1000.97
2019-03-10T17:34:41.725Z,1001.17
2019-03-10T17:39:38.239Z,1001.32
2019-03-10T17:44:41.117Z,1001.43
2019-03-10T17:49:32.643Z,1001.65
2019-03-10T17:54:28.568Z,1001.84
2019-03-10T17:59:24.147Z,1002.02
2019-03-10T18:04:19.468Z,1002.07
2019-03-10T18:09:15.091Z,1002.25
2019-03-10T18:14:11.133Z,1002.29
2019-03-10T18:19:07.706Z,1002.40
2019-03-10T18:24:03.097Z,1002.42
2019-03-10T18:28:58.998Z,1002.47
2019-03-10T18:33:54.690Z,1002.49
2019-03-10T18:38:50.828Z,1002.51
2019-03-10T18:43:46.475Z,1002.64
2019-03-10T18:48:43.934Z,1002.71
2019-03-10T18:53:39.819Z,1002.81
2019-03-10T18:58:35.178Z,1002.89
2019-03-10T19:03:30.740Z,1003.02
2019-03-10T19:08:26.505Z,1003.23
2019-03-10T19:13:22.461Z,1003.37
2019-03-10T19:18:18.394Z,1003.40
2019-03-10T19:23:14.536Z,1003.38
2019-03-10T19:28:10.327Z,1003.44
2019-03-10T19:33:05.928Z,1003.38
2019-03-10T19:38:04.354Z,1003.16
2019-03-10T19:43:00.377Z,1003.18
2019-03-10T19:47:55.832Z,1003.23
2019-03-10T19:52:52.198Z,1003.90
2019-03-10T19:57:48.179Z,1003.89
2019-03-10T20:02:43.591Z,1003.86
2019-03-10T20:07:39.720Z,1003.96
2019-03-10T20:12:36.319Z,1004.18
2019-03-10T20:17:31.476Z,1004.18
2019-03-10T20:22:27.046Z,1004.19
2019-03-10T20:27:23.331Z,1004.12
2019-03-10T20:32:18.897Z,1004.28
2019-03-10T20:37:14.245Z,1004.30
2019-03-10T20:42:12.003Z,1004.39
2019-03-10T20:47:07.212Z,1004.57
2019-03-10T20:52:03.749Z,1004.79
2019-03-10T20:56:58.975Z,1004.62
2019-03-10T21:01:55.525Z,1004.71
2019-03-10T21:06:51.897Z,1004.66
2019-03-10T21:11:48.116Z,1004.64
2019-03-10T21:16:44.392Z,1004.75
2019-03-10T21:21:39.803Z,1004.82
2019-03-10T21:26:36.069Z,1004.90
2019-03-10T21:31:33.372Z,1004.85
2019-03-10T21:36:29.852Z,1005.02
2019-03-10T21:41:25.178Z,1004.96
2019-03-10T21:46:21.618Z,1005.03
2019-03-10T21:51:19.071Z,1005.11
2019-03-10T21:56:14.227Z,1005.19
2019-03-10T22:01:09.542Z,1005.09
2019-03-10T22:06:05.291Z,1005.28
2019-03-10T22:11:00.905Z,1005.31
2019-03-10T22:15:56.507Z,1005.37
2019-03-10T22:20:51.957Z,1005.34
2019-03-10T22:25:47.461Z,1005.42
2019-03-10T22:30:43.062Z,1005.32
2019-03-10T22:35:38.561Z,1005.36
2019-03-10T22:40:34.065Z,1005.64
2019-03-10T22:45:29.420Z,1005.84
2019-03-10T22:50:25.219Z,1005.56
2019-03-10T22:55:21.528Z,1005.35
2019-03-10T23:00:17.400Z,1005.29
2019-03-10T23:05:13.251Z,1005.30
2019-03-10T23:10:08.732Z,1005.03
2019-03-10T23:15:04.169Z,1005.03
2019-03-10T23:19:59.727Z,1004.96
2019-03-10T23:24:55.103Z,1004.85
2019-03-10T23:29:50.695Z,1004.84
2019-03-10T23:34:46.923Z,1004.83
2019-03-10T23:39:43.116Z,1004.80
2019-03-10T23:44:39.425Z,1004.70
2019-03-10T23:49:34.644Z,1004.68
2019-03-10T23:54:30.318Z,1004.64
2019-03-10T23:59:26.799Z,1004.56
